Flight Briefing for CPX652

Departure Arrival
Lynden Pindling International Airport (MYNN)
Click to view FAA NOTAMS
Miami International Airport (KMIA)
Click to view FAA NOTAMS
Departure Time Arrival Time
N/A N/A
Aircraft Distance
SF340AF 160nm
Departure METAR Arrival METAR
MYNN 250300Z 09008KT 9999 FEW035 25/19 A3009 KMIA 250253Z 07010KT 10SM FEW039 26/18 A3009 RMK AO2 SLP190 T02610178 53011
Suggested Route
ZQA FOWEE9


View recent IFR Routes data
Notes



Charts and Procedures

Charts for MYNN
No chart available
Charts for KMIA
No chart available

Windy.com Weather Map